sensor_id;sensor_type;location;lat;lon;timestamp;temperature;humidity
33739;DHT22;20063;51.730;11.110;2023-04-15T00:01:22;7.00;99.90
33739;DHT22;20063;51.730;11.110;2023-04-15T00:03:51;7.00;99.90
33739;DHT22;20063;51.730;11.110;2023-04-15T00:06:22;7.00;99.90
33739;DHT22;20063;51.730;11.110;2023-04-15T00:08:48;7.00;99.90
33739;DHT22;20063;51.730;11.110;2023-04-15T00:11:15;7.00;99.90
33739;DHT22;20063;51.730;11.110;2023-04-15T00:13:41;7.00;99.90
33739;DHT22;20063;51.730;11.110;2023-04-15T00:16:08;7.00;99.90
33739;DHT22;20063;51.730;11.110;2023-04-15T00:18:34;7.00;99.90
33739;DHT22;20063;51.730;11.110;2023-04-15T00:21:01;7.00;99.90
33739;DHT22;20063;51.730;11.110;2023-04-15T00:23:27;7.00;99.90
33739;DHT22;20063;51.730;11.110;2023-04-15T00:25:53;6.90;99.90
33739;DHT22;20063;51.730;11.110;2023-04-15T00:28:19;6.90;99.90
33739;DHT22;20063;51.730;11.110;2023-04-15T00:30:45;7.00;99.90
33739;DHT22;20063;51.730;11.110;2023-04-15T00:33:12;7.00;99.90
33739;DHT22;20063;51.730;11.110;2023-04-15T00:35:38;7.00;99.90
33739;DHT22;20063;51.730;11.110;2023-04-15T00:38:05;7.00;99.90
33739;DHT22;20063;51.730;11.110;2023-04-15T00:40:32;7.00;99.90
33739;DHT22;20063;51.730;11.110;2023-04-15T00:42:59;7.00;99.90
33739;DHT22;20063;51.730;11.110;2023-04-15T00:45:25;7.00;99.90
33739;DHT22;20063;51.730;11.110;2023-04-15T00:47:51;7.00;99.90
33739;DHT22;20063;51.730;11.110;2023-04-15T00:50:17;7.00;99.90
33739;DHT22;20063;51.730;11.110;2023-04-15T00:52:43;6.90;99.90
33739;DHT22;20063;51.730;11.110;2023-04-15T00:55:08;6.90;99.90
33739;DHT22;20063;51.730;11.110;2023-04-15T00:57:35;6.90;99.90
33739;DHT22;20063;51.730;11.110;2023-04-15T01:00:01;6.80;99.90
33739;DHT22;20063;51.730;11.110;2023-04-15T01:02:27;6.80;99.90
33739;DHT22;20063;51.730;11.110;2023-04-15T01:04:53;6.80;99.90
33739;DHT22;20063;51.730;11.110;2023-04-15T01:07:19;6.80;99.90
33739;DHT22;20063;51.730;11.110;2023-04-15T01:09:44;6.80;99.90
33739;DHT22;20063;51.730;11.110;2023-04-15T01:12:13;6.80;99.90
33739;DHT22;20063;51.730;11.110;2023-04-15T01:14:42;6.80;99.90
33739;DHT22;20063;51.730;11.110;2023-04-15T01:17:08;6.70;99.90
33739;DHT22;20063;51.730;11.110;2023-04-15T01:19:35;6.70;99.90
33739;DHT22;20063;51.730;11.110;2023-04-15T01:22:02;6.80;99.90
33739;DHT22;20063;51.730;11.110;2023-04-15T01:24:29;6.80;99.90
33739;DHT22;20063;51.730;11.110;2023-04-15T01:26:56;6.80;99.90
33739;DHT22;20063;51.730;11.110;2023-04-15T01:29:21;6.80;99.90
33739;DHT22;20063;51.730;11.110;2023-04-15T01:31:52;6.70;99.90
33739;DHT22;20063;51.730;11.110;2023-04-15T01:34:18;6.70;99.90
33739;DHT22;20063;51.730;11.110;2023-04-15T01:36:44;6.70;99.90
33739;DHT22;20063;51.730;11.110;2023-04-15T01:39:10;6.70;99.90
33739;DHT22;20063;51.730;11.110;2023-04-15T01:41:36;6.70;99.90
33739;DHT22;20063;51.730;11.110;2023-04-15T01:44:03;6.70;99.90
33739;DHT22;20063;51.730;11.110;2023-04-15T01:46:28;6.60;99.90
33739;DHT22;20063;51.730;11.110;2023-04-15T01:48:54;6.60;99.90
33739;DHT22;20063;51.730;11.110;2023-04-15T01:51:20;6.60;99.90
33739;DHT22;20063;51.730;11.110;2023-04-15T01:53:46;6.60;99.90
33739;DHT22;20063;51.730;11.110;2023-04-15T01:56:12;6.60;99.90
33739;DHT22;20063;51.730;11.110;2023-04-15T01:58:38;6.60;99.90
33739;DHT22;20063;51.730;11.110;2023-04-15T02:01:04;6.50;99.90
33739;DHT22;20063;51.730;11.110;2023-04-15T02:03:31;6.50;99.90
33739;DHT22;20063;51.730;11.110;2023-04-15T02:05:57;6.50;99.90
33739;DHT22;20063;51.730;11.110;2023-04-15T02:08:23;6.50;99.90
33739;DHT22;20063;51.730;11.110;2023-04-15T02:10:48;6.50;99.90
33739;DHT22;20063;51.730;11.110;2023-04-15T02:13:14;6.50;99.90
33739;DHT22;20063;51.730;11.110;2023-04-15T02:15:40;6.50;99.90
33739;DHT22;20063;51.730;11.110;2023-04-15T02:18:05;6.50;99.90
33739;DHT22;20063;51.730;11.110;2023-04-15T02:20:31;6.40;99.90
33739;DHT22;20063;51.730;11.110;2023-04-15T02:23:00;6.40;99.90
33739;DHT22;20063;51.730;11.110;2023-04-15T02:25:26;6.40;99.90
33739;DHT22;20063;51.730;11.110;2023-04-15T02:27:51;6.30;99.90
33739;DHT22;20063;51.730;11.110;2023-04-15T02:30:17;6.30;99.90
33739;DHT22;20063;51.730;11.110;2023-04-15T02:32:43;6.30;99.90
33739;DHT22;20063;51.730;11.110;2023-04-15T02:35:09;6.40;99.90
33739;DHT22;20063;51.730;11.110;2023-04-15T02:37:36;6.40;99.90
33739;DHT22;20063;51.730;11.110;2023-04-15T02:40:07;6.30;99.90
33739;DHT22;20063;51.730;11.110;2023-04-15T02:42:33;6.30;99.90
33739;DHT22;20063;51.730;11.110;2023-04-15T02:44:59;6.30;99.90
33739;DHT22;20063;51.730;11.110;2023-04-15T02:47:25;6.30;99.90
33739;DHT22;20063;51.730;11.110;2023-04-15T02:49:51;6.30;99.90
33739;DHT22;20063;51.730;11.110;2023-04-15T02:52:17;6.30;99.90
33739;DHT22;20063;51.730;11.110;2023-04-15T02:54:42;6.30;99.90
33739;DHT22;20063;51.730;11.110;2023-04-15T02:57:08;6.30;99.90
33739;DHT22;20063;51.730;11.110;2023-04-15T02:59:35;6.30;99.90
33739;DHT22;20063;51.730;11.110;2023-04-15T03:02:00;6.30;99.90
33739;DHT22;20063;51.730;11.110;2023-04-15T03:04:27;6.30;99.90
33739;DHT22;20063;51.730;11.110;2023-04-15T03:06:55;6.30;99.90
33739;DHT22;20063;51.730;11.110;2023-04-15T03:09:21;6.30;99.90
33739;DHT22;20063;51.730;11.110;2023-04-15T03:11:46;6.40;99.90
33739;DHT22;20063;51.730;11.110;2023-04-15T03:14:12;6.30;99.90
33739;DHT22;20063;51.730;11.110;2023-04-15T03:16:38;6.30;99.90
33739;DHT22;20063;51.730;11.110;2023-04-15T03:19:03;6.30;99.90
33739;DHT22;20063;51.730;11.110;2023-04-15T03:21:29;6.30;99.90
33739;DHT22;20063;51.730;11.110;2023-04-15T03:23:55;6.30;99.90
33739;DHT22;20063;51.730;11.110;2023-04-15T03:26:29;6.30;99.90
33739;DHT22;20063;51.730;11.110;2023-04-15T03:28:55;6.30;99.90
33739;DHT22;20063;51.730;11.110;2023-04-15T03:31:21;6.30;99.90
33739;DHT22;20063;51.730;11.110;2023-04-15T03:33:46;6.30;99.90
33739;DHT22;20063;51.730;11.110;2023-04-15T03:36:12;6.30;99.90
33739;DHT22;20063;51.730;11.110;2023-04-15T03:38:37;6.30;99.90
33739;DHT22;20063;51.730;11.110;2023-04-15T03:41:03;6.30;99.90
33739;DHT22;20063;51.730;11.110;2023-04-15T03:43:29;6.30;99.90
33739;DHT22;20063;51.730;11.110;2023-04-15T03:45:55;6.30;99.90
33739;DHT22;20063;51.730;11.110;2023-04-15T03:48:20;6.30;99.90
33739;DHT22;20063;51.730;11.110;2023-04-15T03:50:46;6.30;99.90
33739;DHT22;20063;51.730;11.110;2023-04-15T03:53:13;6.30;99.90
33739;DHT22;20063;51.730;11.110;2023-04-15T03:55:39;6.30;99.90
33739;DHT22;20063;51.730;11.110;2023-04-15T03:58:07;6.30;99.90
33739;DHT22;20063;51.730;11.110;2023-04-15T04:00:37;6.30;99.90
33739;DHT22;20063;51.730;11.110;2023-04-15T04:03:03;6.30;99.90
33739;DHT22;20063;51.730;11.110;2023-04-15T04:05:29;6.30;99.90
33739;DHT22;20063;51.730;11.110;2023-04-15T04:07:54;6.30;99.90
33739;DHT22;20063;51.730;11.110;2023-04-15T04:10:20;6.30;99.90
33739;DHT22;20063;51.730;11.110;2023-04-15T04:12:45;6.30;99.90
33739;DHT22;20063;51.730;11.110;2023-04-15T04:15:11;6.30;99.90
33739;DHT22;20063;51.730;11.110;2023-04-15T04:17:37;6.30;99.90
33739;DHT22;20063;51.730;11.110;2023-04-15T04:20:03;6.30;99.90
33739;DHT22;20063;51.730;11.110;2023-04-15T04:22:30;6.30;99.90
33739;DHT22;20063;51.730;11.110;2023-04-15T04:24:56;6.30;99.90
33739;DHT22;20063;51.730;11.110;2023-04-15T04:27:24;6.30;99.90
33739;DHT22;20063;51.730;11.110;2023-04-15T04:29:49;6.30;99.90
33739;DHT22;20063;51.730;11.110;2023-04-15T04:32:15;6.30;99.90
33739;DHT22;20063;51.730;11.110;2023-04-15T04:34:41;6.30;99.90
33739;DHT22;20063;51.730;11.110;2023-04-15T04:37:07;6.30;99.90
33739;DHT22;20063;51.730;11.110;2023-04-15T04:39:32;6.30;99.90
33739;DHT22;20063;51.730;11.110;2023-04-15T04:41:58;6.20;99.90
33739;DHT22;20063;51.730;11.110;2023-04-15T04:44:24;6.20;99.90
33739;DHT22;20063;51.730;11.110;2023-04-15T04:46:49;6.30;99.90
33739;DHT22;20063;51.730;11.110;2023-04-15T04:49:15;6.20;99.90
33739;DHT22;20063;51.730;11.110;2023-04-15T04:51:40;6.20;99.90
33739;DHT22;20063;51.730;11.110;2023-04-15T04:54:07;6.20;99.90
33739;DHT22;20063;51.730;11.110;2023-04-15T04:56:34;6.20;99.90
33739;DHT22;20063;51.730;11.110;2023-04-15T04:58:59;6.20;99.90
33739;DHT22;20063;51.730;11.110;2023-04-15T05:01:26;6.20;99.90
33739;DHT22;20063;51.730;11.110;2023-04-15T05:03:52;6.30;99.90
33739;DHT22;20063;51.730;11.110;2023-04-15T05:06:17;6.20;99.90
33739;DHT22;20063;51.730;11.110;2023-04-15T05:08:43;6.20;99.90
33739;DHT22;20063;51.730;11.110;2023-04-15T05:11:09;6.30;99.90
33739;DHT22;20063;51.730;11.110;2023-04-15T05:13:34;6.20;99.90
33739;DHT22;20063;51.730;11.110;2023-04-15T05:16:04;6.30;99.90
33739;DHT22;20063;51.730;11.110;2023-04-15T05:18:29;6.30;99.90
33739;DHT22;20063;51.730;11.110;2023-04-15T05:20:55;6.30;99.90
33739;DHT22;20063;51.730;11.110;2023-04-15T05:23:21;6.30;99.90
33739;DHT22;20063;51.730;11.110;2023-04-15T05:25:46;6.30;99.90
33739;DHT22;20063;51.730;11.110;2023-04-15T05:28:12;6.30;99.90
33739;DHT22;20063;51.730;11.110;2023-04-15T05:30:38;6.30;99.90
33739;DHT22;20063;51.730;11.110;2023-04-15T05:33:04;6.30;99.90
33739;DHT22;20063;51.730;11.110;2023-04-15T05:35:30;6.30;99.90
33739;DHT22;20063;51.730;11.110;2023-04-15T05:37:56;6.30;99.90
33739;DHT22;20063;51.730;11.110;2023-04-15T05:40:21;6.30;99.90
33739;DHT22;20063;51.730;11.110;2023-04-15T05:42:47;6.30;99.90
33739;DHT22;20063;51.730;11.110;2023-04-15T05:45:13;6.30;99.90
33739;DHT22;20063;51.730;11.110;2023-04-15T05:47:39;6.40;99.90
33739;DHT22;20063;51.730;11.110;2023-04-15T05:50:05;6.30;99.90
33739;DHT22;20063;51.730;11.110;2023-04-15T05:52:31;6.30;99.90
33739;DHT22;20063;51.730;11.110;2023-04-15T05:54:57;6.20;99.90
33739;DHT22;20063;51.730;11.110;2023-04-15T05:57:23;6.30;99.90
33739;DHT22;20063;51.730;11.110;2023-04-15T05:59:48;6.30;99.90
33739;DHT22;20063;51.730;11.110;2023-04-15T06:02:19;6.40;99.90
33739;DHT22;20063;51.730;11.110;2023-04-15T06:04:45;6.40;99.90
33739;DHT22;20063;51.730;11.110;2023-04-15T06:07:11;6.40;99.90
33739;DHT22;20063;51.730;11.110;2023-04-15T06:09:36;6.40;99.90
33739;DHT22;20063;51.730;11.110;2023-04-15T06:12:03;6.40;99.90
33739;DHT22;20063;51.730;11.110;2023-04-15T06:14:29;6.40;99.90
33739;DHT22;20063;51.730;11.110;2023-04-15T06:16:54;6.40;99.90
33739;DHT22;20063;51.730;11.110;2023-04-15T06:19:20;6.50;99.90
33739;DHT22;20063;51.730;11.110;2023-04-15T06:21:46;6.40;99.90
33739;DHT22;20063;51.730;11.110;2023-04-15T06:24:12;6.40;99.90
33739;DHT22;20063;51.730;11.110;2023-04-15T06:26:38;6.40;99.90
33739;DHT22;20063;51.730;11.110;2023-04-15T06:29:05;6.40;99.90
33739;DHT22;20063;51.730;11.110;2023-04-15T06:31:31;6.40;99.90
33739;DHT22;20063;51.730;11.110;2023-04-15T06:33:56;6.40;99.90
33739;DHT22;20063;51.730;11.110;2023-04-15T06:36:23;6.50;99.90
33739;DHT22;20063;51.730;11.110;2023-04-15T06:38:50;6.50;99.90
33739;DHT22;20063;51.730;11.110;2023-04-15T06:41:16;6.40;99.90
33739;DHT22;20063;51.730;11.110;2023-04-15T06:43:45;6.40;99.90
33739;DHT22;20063;51.730;11.110;2023-04-15T06:46:11;6.50;99.90
33739;DHT22;20063;51.730;11.110;2023-04-15T06:48:38;6.40;99.90
33739;DHT22;20063;51.730;11.110;2023-04-15T06:51:03;6.50;99.90
33739;DHT22;20063;51.730;11.110;2023-04-15T06:53:29;6.50;99.90
33739;DHT22;20063;51.730;11.110;2023-04-15T06:55:55;6.50;99.90
33739;DHT22;20063;51.730;11.110;2023-04-15T06:58:21;6.50;99.90
33739;DHT22;20063;51.730;11.110;2023-04-15T07:00:47;6.50;99.90
33739;DHT22;20063;51.730;11.110;2023-04-15T07:03:13;6.50;99.90
33739;DHT22;20063;51.730;11.110;2023-04-15T07:05:42;6.50;99.90
33739;DHT22;20063;51.730;11.110;2023-04-15T07:08:07;6.60;99.90
33739;DHT22;20063;51.730;11.110;2023-04-15T07:10:33;6.50;99.90
33739;DHT22;20063;51.730;11.110;2023-04-15T07:12:59;6.50;99.90
33739;DHT22;20063;51.730;11.110;2023-04-15T07:15:26;6.60;99.90
33739;DHT22;20063;51.730;11.110;2023-04-15T07:17:53;6.50;99.90
33739;DHT22;20063;51.730;11.110;2023-04-15T07:20:19;6.50;99.90
33739;DHT22;20063;51.730;11.110;2023-04-15T07:22:44;6.50;99.90
33739;DHT22;20063;51.730;11.110;2023-04-15T07:25:10;6.50;99.90
33739;DHT22;20063;51.730;11.110;2023-04-15T07:27:36;6.50;99.90
33739;DHT22;20063;51.730;11.110;2023-04-15T07:30:05;6.50;99.90
33739;DHT22;20063;51.730;11.110;2023-04-15T07:32:30;6.60;99.90
33739;DHT22;20063;51.730;11.110;2023-04-15T07:34:56;6.50;99.90
33739;DHT22;20063;51.730;11.110;2023-04-15T07:37:22;6.50;99.90
33739;DHT22;20063;51.730;11.110;2023-04-15T07:39:47;6.60;99.90
33739;DHT22;20063;51.730;11.110;2023-04-15T07:42:13;6.60;99.90
33739;DHT22;20063;51.730;11.110;2023-04-15T07:44:39;6.60;99.90
33739;DHT22;20063;51.730;11.110;2023-04-15T07:47:05;6.60;99.90
33739;DHT22;20063;51.730;11.110;2023-04-15T07:49:32;6.60;99.90
33739;DHT22;20063;51.730;11.110;2023-04-15T07:51:58;6.60;99.90
33739;DHT22;20063;51.730;11.110;2023-04-15T07:54:24;6.70;99.90
33739;DHT22;20063;51.730;11.110;2023-04-15T07:56:50;6.70;99.90
33739;DHT22;20063;51.730;11.110;2023-04-15T07:59:16;6.70;99.90
33739;DHT22;20063;51.730;11.110;2023-04-15T08:01:45;6.70;99.90
33739;DHT22;20063;51.730;11.110;2023-04-15T08:04:10;6.60;99.90
33739;DHT22;20063;51.730;11.110;2023-04-15T08:06:36;6.70;99.90
33739;DHT22;20063;51.730;11.110;2023-04-15T08:09:04;6.70;99.90
33739;DHT22;20063;51.730;11.110;2023-04-15T08:11:30;6.70;99.90
33739;DHT22;20063;51.730;11.110;2023-04-15T08:13:56;6.70;99.90
33739;DHT22;20063;51.730;11.110;2023-04-15T08:16:23;6.70;99.90
33739;DHT22;20063;51.730;11.110;2023-04-15T08:18:50;6.70;99.90
33739;DHT22;20063;51.730;11.110;2023-04-15T08:21:17;6.70;99.90
33739;DHT22;20063;51.730;11.110;2023-04-15T08:23:45;6.70;99.90
33739;DHT22;20063;51.730;11.110;2023-04-15T08:26:12;6.70;99.90
33739;DHT22;20063;51.730;11.110;2023-04-15T08:28:38;6.70;99.90
33739;DHT22;20063;51.730;11.110;2023-04-15T08:31:05;6.70;99.90
33739;DHT22;20063;51.730;11.110;2023-04-15T08:33:30;6.70;99.90
33739;DHT22;20063;51.730;11.110;2023-04-15T08:35:56;6.70;99.90
33739;DHT22;20063;51.730;11.110;2023-04-15T08:38:23;6.70;99.90
33739;DHT22;20063;51.730;11.110;2023-04-15T08:40:49;6.80;99.90
33739;DHT22;20063;51.730;11.110;2023-04-15T08:43:21;6.70;99.90
33739;DHT22;20063;51.730;11.110;2023-04-15T08:45:49;6.70;99.90
33739;DHT22;20063;51.730;11.110;2023-04-15T08:48:17;6.80;99.90
33739;DHT22;20063;51.730;11.110;2023-04-15T08:50:44;6.80;99.90
33739;DHT22;20063;51.730;11.110;2023-04-15T08:53:13;6.80;99.90
33739;DHT22;20063;51.730;11.110;2023-04-15T08:55:44;6.80;99.90
33739;DHT22;20063;51.730;11.110;2023-04-15T08:58:11;6.80;99.90
33739;DHT22;20063;51.730;11.110;2023-04-15T09:00:37;6.80;99.90
33739;DHT22;20063;51.730;11.110;2023-04-15T09:03:04;6.80;99.90
33739;DHT22;20063;51.730;11.110;2023-04-15T09:05:35;6.80;99.90
33739;DHT22;20063;51.730;11.110;2023-04-15T09:08:01;6.80;99.90
33739;DHT22;20063;51.730;11.110;2023-04-15T09:10:27;6.80;99.90
33739;DHT22;20063;51.730;11.110;2023-04-15T09:12:56;6.80;99.90
33739;DHT22;20063;51.730;11.110;2023-04-15T09:15:24;6.80;99.90
33739;DHT22;20063;51.730;11.110;2023-04-15T09:17:52;6.90;99.90
33739;DHT22;20063;51.730;11.110;2023-04-15T09:20:20;6.90;99.90
33739;DHT22;20063;51.730;11.110;2023-04-15T09:22:47;6.90;99.90
33739;DHT22;20063;51.730;11.110;2023-04-15T09:25:34;6.90;99.90
33739;DHT22;20063;51.730;11.110;2023-04-15T09:28:01;6.90;99.90
33739;DHT22;20063;51.730;11.110;2023-04-15T09:30:27;6.90;99.90
33739;DHT22;20063;51.730;11.110;2023-04-15T09:32:56;6.90;99.90
33739;DHT22;20063;51.730;11.110;2023-04-15T09:35:24;6.90;99.90
33739;DHT22;20063;51.730;11.110;2023-04-15T09:37:50;6.90;99.90
33739;DHT22;20063;51.730;11.110;2023-04-15T09:40:34;7.00;99.90
33739;DHT22;20063;51.730;11.110;2023-04-15T09:43:01;7.00;99.90
33739;DHT22;20063;51.730;11.110;2023-04-15T09:45:27;6.90;99.90
33739;DHT22;20063;51.730;11.110;2023-04-15T09:47:53;6.90;99.90
33739;DHT22;20063;51.730;11.110;2023-04-15T09:50:19;7.00;99.90
33739;DHT22;20063;51.730;11.110;2023-04-15T09:52:46;7.00;99.90
33739;DHT22;20063;51.730;11.110;2023-04-15T09:55:14;7.00;99.90
33739;DHT22;20063;51.730;11.110;2023-04-15T09:57:40;7.00;99.90
33739;DHT22;20063;51.730;11.110;2023-04-15T10:00:07;7.10;99.90
33739;DHT22;20063;51.730;11.110;2023-04-15T10:02:34;7.10;99.90
33739;DHT22;20063;51.730;11.110;2023-04-15T10:05:01;7.10;99.90
33739;DHT22;20063;51.730;11.110;2023-04-15T10:07:27;7.10;99.90
33739;DHT22;20063;51.730;11.110;2023-04-15T10:09:53;7.10;99.90
33739;DHT22;20063;51.730;11.110;2023-04-15T10:12:19;7.10;99.90
33739;DHT22;20063;51.730;11.110;2023-04-15T10:14:55;7.10;99.90
33739;DHT22;20063;51.730;11.110;2023-04-15T10:17:22;7.20;99.90
33739;DHT22;20063;51.730;11.110;2023-04-15T10:19:48;7.10;99.90
33739;DHT22;20063;51.730;11.110;2023-04-15T10:22:16;7.10;99.90
33739;DHT22;20063;51.730;11.110;2023-04-15T10:24:43;7.20;99.90
33739;DHT22;20063;51.730;11.110;2023-04-15T10:27:09;7.20;99.90
33739;DHT22;20063;51.730;11.110;2023-04-15T10:29:35;7.20;99.90
33739;DHT22;20063;51.730;11.110;2023-04-15T10:32:02;7.20;99.90
33739;DHT22;20063;51.730;11.110;2023-04-15T10:34:28;7.20;99.90
33739;DHT22;20063;51.730;11.110;2023-04-15T10:37:08;7.10;99.90
33739;DHT22;20063;51.730;11.110;2023-04-15T10:42:06;7.20;99.90
33739;DHT22;20063;51.730;11.110;2023-04-15T10:44:32;7.20;99.90
33739;DHT22;20063;51.730;11.110;2023-04-15T10:46:58;7.20;99.90
33739;DHT22;20063;51.730;11.110;2023-04-15T10:49:24;7.20;99.90
33739;DHT22;20063;51.730;11.110;2023-04-15T10:51:52;7.20;99.90
33739;DHT22;20063;51.730;11.110;2023-04-15T10:59:58;7.30;99.90
33739;DHT22;20063;51.730;11.110;2023-04-15T11:02:40;7.30;99.90
33739;DHT22;20063;51.730;11.110;2023-04-15T11:05:08;7.30;99.90
33739;DHT22;20063;51.730;11.110;2023-04-15T11:12:47;7.30;99.90
33739;DHT22;20063;51.730;11.110;2023-04-15T11:15:31;7.40;99.90
33739;DHT22;20063;51.730;11.110;2023-04-15T11:17:58;7.40;99.90
33739;DHT22;20063;51.730;11.110;2023-04-15T11:20:24;7.40;99.90
33739;DHT22;20063;51.730;11.110;2023-04-15T11:22:51;7.40;99.90
33739;DHT22;20063;51.730;11.110;2023-04-15T11:25:26;7.40;99.90
33739;DHT22;20063;51.730;11.110;2023-04-15T11:27:52;7.40;99.90
33739;DHT22;20063;51.730;11.110;2023-04-15T11:30:27;7.40;99.90
33739;DHT22;20063;51.730;11.110;2023-04-15T11:32:57;7.40;99.90
33739;DHT22;20063;51.730;11.110;2023-04-15T11:35:23;7.40;99.90
33739;DHT22;20063;51.730;11.110;2023-04-15T11:37:49;7.40;99.90
33739;DHT22;20063;51.730;11.110;2023-04-15T11:40:16;7.40;99.90
33739;DHT22;20063;51.730;11.110;2023-04-15T11:42:43;7.40;99.90
33739;DHT22;20063;51.730;11.110;2023-04-15T11:45:14;7.40;99.90
33739;DHT22;20063;51.730;11.110;2023-04-15T11:47:42;7.50;99.90
33739;DHT22;20063;51.730;11.110;2023-04-15T11:50:15;7.50;99.90
33739;DHT22;20063;51.730;11.110;2023-04-15T11:53:04;7.50;99.90
33739;DHT22;20063;51.730;11.110;2023-04-15T11:55:30;7.50;99.90
33739;DHT22;20063;51.730;11.110;2023-04-15T12:00:50;7.50;99.90
33739;DHT22;20063;51.730;11.110;2023-04-15T12:03:19;7.50;99.90
33739;DHT22;20063;51.730;11.110;2023-04-15T12:06:05;7.50;99.90
33739;DHT22;20063;51.730;11.110;2023-04-15T12:08:57;7.60;99.90
33739;DHT22;20063;51.730;11.110;2023-04-15T12:13:58;7.60;99.90
33739;DHT22;20063;51.730;11.110;2023-04-15T12:16:27;7.60;99.90
33739;DHT22;20063;51.730;11.110;2023-04-15T12:18:55;7.60;99.90
33739;DHT22;20063;51.730;11.110;2023-04-15T12:21:22;7.60;99.90
33739;DHT22;20063;51.730;11.110;2023-04-15T12:23:48;7.60;99.90
33739;DHT22;20063;51.730;11.110;2023-04-15T12:26:16;7.60;99.90
33739;DHT22;20063;51.730;11.110;2023-04-15T12:28:45;7.60;99.90
33739;DHT22;20063;51.730;11.110;2023-04-15T12:31:11;7.70;99.90
33739;DHT22;20063;51.730;11.110;2023-04-15T12:33:38;7.70;99.90
33739;DHT22;20063;51.730;11.110;2023-04-15T12:36:05;7.70;99.90
33739;DHT22;20063;51.730;11.110;2023-04-15T12:38:31;7.70;99.90
33739;DHT22;20063;51.730;11.110;2023-04-15T12:40:58;7.70;99.90
33739;DHT22;20063;51.730;11.110;2023-04-15T12:43:24;7.70;99.90
33739;DHT22;20063;51.730;11.110;2023-04-15T12:45:50;7.80;99.90
33739;DHT22;20063;51.730;11.110;2023-04-15T12:48:15;7.70;99.90
33739;DHT22;20063;51.730;11.110;2023-04-15T12:50:41;7.80;99.90
33739;DHT22;20063;51.730;11.110;2023-04-15T12:53:06;7.80;99.90
33739;DHT22;20063;51.730;11.110;2023-04-15T12:55:33;7.80;99.90
33739;DHT22;20063;51.730;11.110;2023-04-15T12:57:59;7.90;99.90
33739;DHT22;20063;51.730;11.110;2023-04-15T13:00:24;7.90;99.90
33739;DHT22;20063;51.730;11.110;2023-04-15T13:02:50;7.90;99.90
33739;DHT22;20063;51.730;11.110;2023-04-15T13:05:15;7.90;99.90
33739;DHT22;20063;51.730;11.110;2023-04-15T13:07:41;7.90;99.90
33739;DHT22;20063;51.730;11.110;2023-04-15T13:10:07;7.90;99.90
33739;DHT22;20063;51.730;11.110;2023-04-15T13:12:33;8.00;99.90
33739;DHT22;20063;51.730;11.110;2023-04-15T13:15:07;8.00;99.90
33739;DHT22;20063;51.730;11.110;2023-04-15T13:17:35;8.00;99.90
33739;DHT22;20063;51.730;11.110;2023-04-15T13:20:01;8.00;99.90
33739;DHT22;20063;51.730;11.110;2023-04-15T13:22:26;8.00;99.90
33739;DHT22;20063;51.730;11.110;2023-04-15T13:25:15;8.00;99.90
33739;DHT22;20063;51.730;11.110;2023-04-15T13:27:40;8.10;99.90
33739;DHT22;20063;51.730;11.110;2023-04-15T13:30:07;8.10;99.90
33739;DHT22;20063;51.730;11.110;2023-04-15T13:32:33;8.00;99.90
33739;DHT22;20063;51.730;11.110;2023-04-15T13:34:58;8.00;99.90
33739;DHT22;20063;51.730;11.110;2023-04-15T13:37:27;8.00;99.90
33739;DHT22;20063;51.730;11.110;2023-04-15T13:39:54;8.00;99.90
33739;DHT22;20063;51.730;11.110;2023-04-15T13:42:23;8.00;99.90
33739;DHT22;20063;51.730;11.110;2023-04-15T13:44:50;8.10;99.90
33739;DHT22;20063;51.730;11.110;2023-04-15T13:47:21;8.10;99.90
33739;DHT22;20063;51.730;11.110;2023-04-15T13:49:47;8.10;99.90
33739;DHT22;20063;51.730;11.110;2023-04-15T13:52:12;8.10;99.90
33739;DHT22;20063;51.730;11.110;2023-04-15T13:54:39;8.10;99.90
33739;DHT22;20063;51.730;11.110;2023-04-15T13:57:05;8.10;99.90
33739;DHT22;20063;51.730;11.110;2023-04-15T13:59:32;8.10;99.90
33739;DHT22;20063;51.730;11.110;2023-04-15T14:01:59;8.10;99.90
33739;DHT22;20063;51.730;11.110;2023-04-15T14:04:24;8.20;99.90
33739;DHT22;20063;51.730;11.110;2023-04-15T14:06:50;8.10;99.90
33739;DHT22;20063;51.730;11.110;2023-04-15T14:09:16;8.20;99.90
33739;DHT22;20063;51.730;11.110;2023-04-15T14:11:41;8.10;99.90
33739;DHT22;20063;51.730;11.110;2023-04-15T14:14:08;8.10;99.90
33739;DHT22;20063;51.730;11.110;2023-04-15T14:16:34;8.20;99.90
33739;DHT22;20063;51.730;11.110;2023-04-15T14:19:00;8.20;99.90
33739;DHT22;20063;51.730;11.110;2023-04-15T14:21:29;8.20;99.90
33739;DHT22;20063;51.730;11.110;2023-04-15T14:23:57;8.20;99.90
33739;DHT22;20063;51.730;11.110;2023-04-15T14:26:25;8.20;99.90
33739;DHT22;20063;51.730;11.110;2023-04-15T14:28:51;8.30;99.90
33739;DHT22;20063;51.730;11.110;2023-04-15T14:31:17;8.30;99.90
33739;DHT22;20063;51.730;11.110;2023-04-15T14:33:43;8.30;99.90
33739;DHT22;20063;51.730;11.110;2023-04-15T14:36:08;8.30;99.90
33739;DHT22;20063;51.730;11.110;2023-04-15T14:38:35;8.30;99.90
33739;DHT22;20063;51.730;11.110;2023-04-15T14:41:07;8.30;99.90
33739;DHT22;20063;51.730;11.110;2023-04-15T14:43:33;8.30;99.90
33739;DHT22;20063;51.730;11.110;2023-04-15T14:45:59;8.40;99.90
33739;DHT22;20063;51.730;11.110;2023-04-15T14:48:25;8.30;99.90
33739;DHT22;20063;51.730;11.110;2023-04-15T14:50:51;8.30;99.90
33739;DHT22;20063;51.730;11.110;2023-04-15T14:53:16;8.40;99.90
33739;DHT22;20063;51.730;11.110;2023-04-15T14:55:42;8.40;99.90
33739;DHT22;20063;51.730;11.110;2023-04-15T14:58:09;8.40;99.90
33739;DHT22;20063;51.730;11.110;2023-04-15T15:00:36;8.30;99.90
33739;DHT22;20063;51.730;11.110;2023-04-15T15:03:09;8.40;99.90
33739;DHT22;20063;51.730;11.110;2023-04-15T15:05:44;8.40;99.90
33739;DHT22;20063;51.730;11.110;2023-04-15T15:08:10;8.40;99.90
33739;DHT22;20063;51.730;11.110;2023-04-15T15:10:37;8.40;99.90
33739;DHT22;20063;51.730;11.110;2023-04-15T15:13:04;8.50;99.90
33739;DHT22;20063;51.730;11.110;2023-04-15T15:15:30;8.50;99.90
33739;DHT22;20063;51.730;11.110;2023-04-15T15:17:55;8.50;99.90
33739;DHT22;20063;51.730;11.110;2023-04-15T15:20:21;8.50;99.90
33739;DHT22;20063;51.730;11.110;2023-04-15T15:22:47;8.50;99.90
33739;DHT22;20063;51.730;11.110;2023-04-15T15:25:19;8.50;99.90
33739;DHT22;20063;51.730;11.110;2023-04-15T15:27:45;8.50;99.90
33739;DHT22;20063;51.730;11.110;2023-04-15T15:30:11;8.40;99.90
33739;DHT22;20063;51.730;11.110;2023-04-15T15:32:39;8.40;99.90
33739;DHT22;20063;51.730;11.110;2023-04-15T15:35:08;8.50;99.90
33739;DHT22;20063;51.730;11.110;2023-04-15T15:37:35;8.50;99.90
33739;DHT22;20063;51.730;11.110;2023-04-15T15:40:03;8.50;99.90
33739;DHT22;20063;51.730;11.110;2023-04-15T15:42:30;8.60;99.90
33739;DHT22;20063;51.730;11.110;2023-04-15T15:44:56;8.50;99.90
33739;DHT22;20063;51.730;11.110;2023-04-15T15:47:22;8.60;99.90